sensor_id;sensor_type;location;lat;lon;timestamp;temperature;humidity
26954;DHT22;14508;50.924;11.600;2023-05-17T00:00:12;6.20;99.90
26954;DHT22;14508;50.924;11.600;2023-05-17T00:02:39;6.20;99.90
26954;DHT22;14508;50.924;11.600;2023-05-17T00:05:08;6.20;99.90
26954;DHT22;14508;50.924;11.600;2023-05-17T00:07:37;6.20;99.90
26954;DHT22;14508;50.924;11.600;2023-05-17T00:10:07;6.20;99.90
26954;DHT22;14508;50.924;11.600;2023-05-17T00:12:35;6.10;99.90
26954;DHT22;14508;50.924;11.600;2023-05-17T00:15:03;6.10;99.90
26954;DHT22;14508;50.924;11.600;2023-05-17T00:17:31;6.10;99.90
26954;DHT22;14508;50.924;11.600;2023-05-17T00:19:59;6.00;99.90
26954;DHT22;14508;50.924;11.600;2023-05-17T00:22:27;6.00;99.90
26954;DHT22;14508;50.924;11.600;2023-05-17T00:24:55;6.00;99.90
26954;DHT22;14508;50.924;11.600;2023-05-17T00:27:24;6.00;99.90
26954;DHT22;14508;50.924;11.600;2023-05-17T00:29:52;6.00;99.90
26954;DHT22;14508;50.924;11.600;2023-05-17T00:32:20;6.00;99.90
26954;DHT22;14508;50.924;11.600;2023-05-17T00:34:49;5.90;99.90
26954;DHT22;14508;50.924;11.600;2023-05-17T00:37:17;5.90;99.90
26954;DHT22;14508;50.924;11.600;2023-05-17T00:39:45;5.90;99.90
26954;DHT22;14508;50.924;11.600;2023-05-17T00:42:13;5.90;99.90
26954;DHT22;14508;50.924;11.600;2023-05-17T00:44:42;5.90;99.90
26954;DHT22;14508;50.924;11.600;2023-05-17T00:47:10;5.90;99.90
26954;DHT22;14508;50.924;11.600;2023-05-17T00:49:39;5.80;99.90
26954;DHT22;14508;50.924;11.600;2023-05-17T00:52:07;5.80;99.90
26954;DHT22;14508;50.924;11.600;2023-05-17T00:54:34;5.80;99.90
26954;DHT22;14508;50.924;11.600;2023-05-17T00:57:03;5.80;99.90
26954;DHT22;14508;50.924;11.600;2023-05-17T00:59:33;5.80;99.90
26954;DHT22;14508;50.924;11.600;2023-05-17T01:02:04;5.80;99.90
26954;DHT22;14508;50.924;11.600;2023-05-17T01:04:33;5.80;99.90
26954;DHT22;14508;50.924;11.600;2023-05-17T01:07:02;5.70;99.90
26954;DHT22;14508;50.924;11.600;2023-05-17T01:09:30;5.70;99.90
26954;DHT22;14508;50.924;11.600;2023-05-17T01:12:04;5.70;99.90
26954;DHT22;14508;50.924;11.600;2023-05-17T01:14:42;5.60;99.90
26954;DHT22;14508;50.924;11.600;2023-05-17T01:17:21;5.50;99.90
26954;DHT22;14508;50.924;11.600;2023-05-17T01:19:58;5.50;99.90
26954;DHT22;14508;50.924;11.600;2023-05-17T01:22:38;5.50;99.90
26954;DHT22;14508;50.924;11.600;2023-05-17T01:25:25;5.40;99.90
26954;DHT22;14508;50.924;11.600;2023-05-17T01:27:57;5.50;99.90
26954;DHT22;14508;50.924;11.600;2023-05-17T01:30:28;5.40;99.90
26954;DHT22;14508;50.924;11.600;2023-05-17T01:32:56;5.40;99.90
26954;DHT22;14508;50.924;11.600;2023-05-17T01:35:25;5.40;99.90
26954;DHT22;14508;50.924;11.600;2023-05-17T01:37:54;5.40;99.90
26954;DHT22;14508;50.924;11.600;2023-05-17T01:40:22;5.40;99.90
26954;DHT22;14508;50.924;11.600;2023-05-17T01:42:55;5.40;99.90
26954;DHT22;14508;50.924;11.600;2023-05-17T01:45:29;5.30;99.90
26954;DHT22;14508;50.924;11.600;2023-05-17T01:48:05;5.30;99.90
26954;DHT22;14508;50.924;11.600;2023-05-17T01:50:37;5.30;99.90
26954;DHT22;14508;50.924;11.600;2023-05-17T01:53:09;5.30;99.90
26954;DHT22;14508;50.924;11.600;2023-05-17T01:55:42;5.20;99.90
26954;DHT22;14508;50.924;11.600;2023-05-17T01:58:13;5.20;99.90
26954;DHT22;14508;50.924;11.600;2023-05-17T02:00:43;5.20;99.90
26954;DHT22;14508;50.924;11.600;2023-05-17T02:03:16;5.20;99.90
26954;DHT22;14508;50.924;11.600;2023-05-17T02:05:44;5.20;99.90
26954;DHT22;14508;50.924;11.600;2023-05-17T02:08:12;5.20;99.90
26954;DHT22;14508;50.924;11.600;2023-05-17T02:10:40;5.20;99.90
26954;DHT22;14508;50.924;11.600;2023-05-17T02:13:08;5.20;99.90
26954;DHT22;14508;50.924;11.600;2023-05-17T02:15:38;5.20;99.90
26954;DHT22;14508;50.924;11.600;2023-05-17T02:18:06;5.10;99.90
26954;DHT22;14508;50.924;11.600;2023-05-17T02:20:34;5.10;99.90
26954;DHT22;14508;50.924;11.600;2023-05-17T02:23:02;5.10;99.90
26954;DHT22;14508;50.924;11.600;2023-05-17T02:25:30;5.10;99.90
26954;DHT22;14508;50.924;11.600;2023-05-17T02:27:58;5.10;99.90
26954;DHT22;14508;50.924;11.600;2023-05-17T02:30:26;5.10;99.90
26954;DHT22;14508;50.924;11.600;2023-05-17T02:32:56;5.10;99.90
26954;DHT22;14508;50.924;11.600;2023-05-17T02:35:25;5.10;99.90
26954;DHT22;14508;50.924;11.600;2023-05-17T02:37:53;5.00;99.90
26954;DHT22;14508;50.924;11.600;2023-05-17T02:40:20;5.00;99.90
26954;DHT22;14508;50.924;11.600;2023-05-17T02:42:49;5.00;99.90
26954;DHT22;14508;50.924;11.600;2023-05-17T02:45:17;4.90;99.90
26954;DHT22;14508;50.924;11.600;2023-05-17T02:47:44;4.90;99.90
26954;DHT22;14508;50.924;11.600;2023-05-17T02:50:14;4.90;99.90
26954;DHT22;14508;50.924;11.600;2023-05-17T02:52:42;4.90;99.90
26954;DHT22;14508;50.924;11.600;2023-05-17T02:55:10;4.90;99.90
26954;DHT22;14508;50.924;11.600;2023-05-17T02:57:38;4.90;99.90
26954;DHT22;14508;50.924;11.600;2023-05-17T03:00:07;4.90;99.90
26954;DHT22;14508;50.924;11.600;2023-05-17T03:02:36;4.90;99.90
26954;DHT22;14508;50.924;11.600;2023-05-17T03:05:05;4.90;99.90
26954;DHT22;14508;50.924;11.600;2023-05-17T03:07:40;4.80;99.90
26954;DHT22;14508;50.924;11.600;2023-05-17T03:10:08;4.70;99.90
26954;DHT22;14508;50.924;11.600;2023-05-17T03:12:41;4.70;99.90
26954;DHT22;14508;50.924;11.600;2023-05-17T03:15:09;4.70;99.90
26954;DHT22;14508;50.924;11.600;2023-05-17T03:17:37;4.70;99.90
26954;DHT22;14508;50.924;11.600;2023-05-17T03:20:07;4.70;99.90
26954;DHT22;14508;50.924;11.600;2023-05-17T03:22:36;4.70;99.90
26954;DHT22;14508;50.924;11.600;2023-05-17T03:25:06;4.60;99.90
26954;DHT22;14508;50.924;11.600;2023-05-17T03:27:35;4.60;99.90
26954;DHT22;14508;50.924;11.600;2023-05-17T03:30:05;4.60;99.90
26954;DHT22;14508;50.924;11.600;2023-05-17T03:32:34;4.60;99.90
26954;DHT22;14508;50.924;11.600;2023-05-17T03:35:05;4.60;99.90
26954;DHT22;14508;50.924;11.600;2023-05-17T03:37:34;4.60;99.90
26954;DHT22;14508;50.924;11.600;2023-05-17T03:40:05;4.70;99.90
26954;DHT22;14508;50.924;11.600;2023-05-17T03:42:33;4.70;99.90
26954;DHT22;14508;50.924;11.600;2023-05-17T03:45:02;4.70;99.90
26954;DHT22;14508;50.924;11.600;2023-05-17T03:47:30;4.70;99.90
26954;DHT22;14508;50.924;11.600;2023-05-17T03:49:58;4.60;99.90
26954;DHT22;14508;50.924;11.600;2023-05-17T03:52:28;4.70;99.90
26954;DHT22;14508;50.924;11.600;2023-05-17T03:54:57;4.70;99.90
26954;DHT22;14508;50.924;11.600;2023-05-17T03:57:27;4.80;99.90
26954;DHT22;14508;50.924;11.600;2023-05-17T03:59:55;4.70;99.90
26954;DHT22;14508;50.924;11.600;2023-05-17T04:02:23;4.80;99.90
26954;DHT22;14508;50.924;11.600;2023-05-17T04:04:52;4.80;99.90
26954;DHT22;14508;50.924;11.600;2023-05-17T04:07:22;4.80;99.90
26954;DHT22;14508;50.924;11.600;2023-05-17T04:09:50;4.80;99.90
26954;DHT22;14508;50.924;11.600;2023-05-17T04:12:18;4.90;99.90
26954;DHT22;14508;50.924;11.600;2023-05-17T04:14:48;4.90;99.90
26954;DHT22;14508;50.924;11.600;2023-05-17T04:17:16;4.90;99.90
26954;DHT22;14508;50.924;11.600;2023-05-17T04:19:45;5.00;99.90
26954;DHT22;14508;50.924;11.600;2023-05-17T04:22:13;5.10;99.90
26954;DHT22;14508;50.924;11.600;2023-05-17T04:24:41;5.20;99.90
26954;DHT22;14508;50.924;11.600;2023-05-17T04:27:09;5.30;99.90
26954;DHT22;14508;50.924;11.600;2023-05-17T04:29:37;5.30;99.90
26954;DHT22;14508;50.924;11.600;2023-05-17T04:32:08;5.40;99.90
26954;DHT22;14508;50.924;11.600;2023-05-17T04:34:37;5.40;99.90
26954;DHT22;14508;50.924;11.600;2023-05-17T04:37:05;5.50;99.90
26954;DHT22;14508;50.924;11.600;2023-05-17T04:39:35;5.60;99.90
26954;DHT22;14508;50.924;11.600;2023-05-17T04:42:03;5.60;99.90
26954;DHT22;14508;50.924;11.600;2023-05-17T04:44:34;5.60;99.90
26954;DHT22;14508;50.924;11.600;2023-05-17T04:47:03;5.60;99.90
26954;DHT22;14508;50.924;11.600;2023-05-17T04:49:32;5.60;99.90
26954;DHT22;14508;50.924;11.600;2023-05-17T04:52:01;5.60;99.90
26954;DHT22;14508;50.924;11.600;2023-05-17T04:54:33;5.60;99.90
26954;DHT22;14508;50.924;11.600;2023-05-17T04:57:01;5.70;99.90
26954;DHT22;14508;50.924;11.600;2023-05-17T04:59:48;5.80;99.90
26954;DHT22;14508;50.924;11.600;2023-05-17T05:02:17;6.00;99.90
26954;DHT22;14508;50.924;11.600;2023-05-17T05:04:46;6.00;99.90
26954;DHT22;14508;50.924;11.600;2023-05-17T05:07:15;6.10;99.90
26954;DHT22;14508;50.924;11.600;2023-05-17T05:09:45;6.20;99.90
26954;DHT22;14508;50.924;11.600;2023-05-17T05:12:14;6.30;99.90
26954;DHT22;14508;50.924;11.600;2023-05-17T05:14:42;6.40;99.90
26954;DHT22;14508;50.924;11.600;2023-05-17T05:17:11;6.60;99.90
26954;DHT22;14508;50.924;11.600;2023-05-17T05:19:41;6.70;99.90
26954;DHT22;14508;50.924;11.600;2023-05-17T05:22:10;6.90;99.90
26954;DHT22;14508;50.924;11.600;2023-05-17T05:24:39;7.00;99.90
26954;DHT22;14508;50.924;11.600;2023-05-17T05:27:09;7.10;99.90
26954;DHT22;14508;50.924;11.600;2023-05-17T05:29:38;7.10;99.90
26954;DHT22;14508;50.924;11.600;2023-05-17T05:32:08;7.30;99.90
26954;DHT22;14508;50.924;11.600;2023-05-17T05:34:42;7.40;99.90
26954;DHT22;14508;50.924;11.600;2023-05-17T05:37:11;7.50;99.90
26954;DHT22;14508;50.924;11.600;2023-05-17T05:39:39;7.70;99.90
26954;DHT22;14508;50.924;11.600;2023-05-17T05:42:08;7.90;99.90
26954;DHT22;14508;50.924;11.600;2023-05-17T05:44:36;8.10;99.90
26954;DHT22;14508;50.924;11.600;2023-05-17T05:47:04;8.30;99.90
26954;DHT22;14508;50.924;11.600;2023-05-17T05:49:32;8.50;99.90
26954;DHT22;14508;50.924;11.600;2023-05-17T05:52:00;8.70;99.90
26954;DHT22;14508;50.924;11.600;2023-05-17T05:54:31;8.90;99.90
26954;DHT22;14508;50.924;11.600;2023-05-17T05:56:58;9.10;99.90
26954;DHT22;14508;50.924;11.600;2023-05-17T05:59:26;9.20;99.90
26954;DHT22;14508;50.924;11.600;2023-05-17T06:01:56;9.50;99.90
26954;DHT22;14508;50.924;11.600;2023-05-17T06:04:24;9.70;99.90
26954;DHT22;14508;50.924;11.600;2023-05-17T06:07:09;9.90;99.90
26954;DHT22;14508;50.924;11.600;2023-05-17T06:09:39;10.10;99.90
26954;DHT22;14508;50.924;11.600;2023-05-17T06:12:07;10.20;99.90
26954;DHT22;14508;50.924;11.600;2023-05-17T06:14:35;10.30;99.90
26954;DHT22;14508;50.924;11.600;2023-05-17T06:17:04;10.30;99.90
26954;DHT22;14508;50.924;11.600;2023-05-17T06:19:32;10.30;99.90
26954;DHT22;14508;50.924;11.600;2023-05-17T06:22:00;10.30;99.90
26954;DHT22;14508;50.924;11.600;2023-05-17T06:24:28;10.40;99.90
26954;DHT22;14508;50.924;11.600;2023-05-17T06:26:57;10.40;99.90
26954;DHT22;14508;50.924;11.600;2023-05-17T06:29:25;10.50;99.90
26954;DHT22;14508;50.924;11.600;2023-05-17T06:31:53;10.50;99.90
26954;DHT22;14508;50.924;11.600;2023-05-17T06:34:22;10.60;99.90
26954;DHT22;14508;50.924;11.600;2023-05-17T06:36:50;10.70;99.90
26954;DHT22;14508;50.924;11.600;2023-05-17T06:39:18;10.70;99.90
26954;DHT22;14508;50.924;11.600;2023-05-17T06:41:46;10.80;99.90
26954;DHT22;14508;50.924;11.600;2023-05-17T06:44:17;10.80;99.90
26954;DHT22;14508;50.924;11.600;2023-05-17T06:46:45;10.90;99.90
26954;DHT22;14508;50.924;11.600;2023-05-17T06:49:13;10.90;99.90
26954;DHT22;14508;50.924;11.600;2023-05-17T06:51:41;10.90;99.90
26954;DHT22;14508;50.924;11.600;2023-05-17T06:54:09;10.90;99.90
26954;DHT22;14508;50.924;11.600;2023-05-17T06:56:37;11.00;99.90
26954;DHT22;14508;50.924;11.600;2023-05-17T06:59:04;11.10;99.90
26954;DHT22;14508;50.924;11.600;2023-05-17T07:01:34;11.10;99.90
26954;DHT22;14508;50.924;11.600;2023-05-17T07:04:02;11.10;99.90
26954;DHT22;14508;50.924;11.600;2023-05-17T07:06:30;11.10;99.90
26954;DHT22;14508;50.924;11.600;2023-05-17T07:08:58;11.10;99.90
26954;DHT22;14508;50.924;11.600;2023-05-17T07:11:26;11.10;99.90
26954;DHT22;14508;50.924;11.600;2023-05-17T07:13:53;11.20;99.90
26954;DHT22;14508;50.924;11.600;2023-05-17T07:16:21;11.20;99.90
26954;DHT22;14508;50.924;11.600;2023-05-17T07:18:50;11.10;99.90
26954;DHT22;14508;50.924;11.600;2023-05-17T07:21:19;11.20;99.90
26954;DHT22;14508;50.924;11.600;2023-05-17T07:23:46;11.20;99.90
26954;DHT22;14508;50.924;11.600;2023-05-17T07:26:14;11.10;99.90
26954;DHT22;14508;50.924;11.600;2023-05-17T07:28:42;11.10;99.90
26954;DHT22;14508;50.924;11.600;2023-05-17T07:31:10;11.20;99.90
26954;DHT22;14508;50.924;11.600;2023-05-17T07:33:38;11.30;99.90
26954;DHT22;14508;50.924;11.600;2023-05-17T07:36:08;11.40;99.90
26954;DHT22;14508;50.924;11.600;2023-05-17T07:38:36;11.60;99.90
26954;DHT22;14508;50.924;11.600;2023-05-17T07:41:04;11.60;99.90
26954;DHT22;14508;50.924;11.600;2023-05-17T07:43:35;11.70;99.90
26954;DHT22;14508;50.924;11.600;2023-05-17T07:46:04;11.90;99.90
26954;DHT22;14508;50.924;11.600;2023-05-17T07:48:32;11.90;99.90
26954;DHT22;14508;50.924;11.600;2023-05-17T07:51:00;11.90;99.90
26954;DHT22;14508;50.924;11.600;2023-05-17T07:53:29;12.00;99.90
26954;DHT22;14508;50.924;11.600;2023-05-17T07:55:57;11.90;99.90
26954;DHT22;14508;50.924;11.600;2023-05-17T07:58:24;11.80;99.90
26954;DHT22;14508;50.924;11.600;2023-05-17T08:00:52;11.70;99.90
26954;DHT22;14508;50.924;11.600;2023-05-17T08:03:20;11.70;99.90
26954;DHT22;14508;50.924;11.600;2023-05-17T08:05:48;11.60;99.90
26954;DHT22;14508;50.924;11.600;2023-05-17T08:08:16;11.50;99.90
26954;DHT22;14508;50.924;11.600;2023-05-17T08:10:45;11.50;99.90
26954;DHT22;14508;50.924;11.600;2023-05-17T08:13:13;11.50;99.90
26954;DHT22;14508;50.924;11.600;2023-05-17T08:15:41;11.40;99.90
26954;DHT22;14508;50.924;11.600;2023-05-17T08:18:09;11.40;99.90
26954;DHT22;14508;50.924;11.600;2023-05-17T08:20:37;11.50;99.90
26954;DHT22;14508;50.924;11.600;2023-05-17T08:23:05;11.60;99.90
26954;DHT22;14508;50.924;11.600;2023-05-17T08:25:35;11.60;99.90
26954;DHT22;14508;50.924;11.600;2023-05-17T08:28:05;11.70;99.90
26954;DHT22;14508;50.924;11.600;2023-05-17T08:30:32;11.70;99.90
26954;DHT22;14508;50.924;11.600;2023-05-17T08:33:00;11.80;99.90
26954;DHT22;14508;50.924;11.600;2023-05-17T08:35:29;11.80;99.90
26954;DHT22;14508;50.924;11.600;2023-05-17T08:37:57;11.90;99.90
26954;DHT22;14508;50.924;11.600;2023-05-17T08:40:26;12.00;99.90
26954;DHT22;14508;50.924;11.600;2023-05-17T08:42:55;12.10;99.90
26954;DHT22;14508;50.924;11.600;2023-05-17T08:45:25;12.20;99.90
26954;DHT22;14508;50.924;11.600;2023-05-17T08:47:56;12.40;99.90
26954;DHT22;14508;50.924;11.600;2023-05-17T08:50:26;12.60;99.90
26954;DHT22;14508;50.924;11.600;2023-05-17T08:52:56;12.70;99.90
26954;DHT22;14508;50.924;11.600;2023-05-17T08:55:26;12.80;98.30
26954;DHT22;14508;50.924;11.600;2023-05-17T08:57:55;12.90;97.30
26954;DHT22;14508;50.924;11.600;2023-05-17T09:00:25;13.00;96.40
26954;DHT22;14508;50.924;11.600;2023-05-17T09:02:54;13.00;96.40
26954;DHT22;14508;50.924;11.600;2023-05-17T09:05:22;13.00;96.90
26954;DHT22;14508;50.924;11.600;2023-05-17T09:07:51;13.20;96.80
26954;DHT22;14508;50.924;11.600;2023-05-17T09:10:19;13.30;96.00
26954;DHT22;14508;50.924;11.600;2023-05-17T09:12:47;13.40;94.90
26954;DHT22;14508;50.924;11.600;2023-05-17T09:15:17;13.30;92.40
26954;DHT22;14508;50.924;11.600;2023-05-17T09:17:52;13.20;92.10
26954;DHT22;14508;50.924;11.600;2023-05-17T09:20:23;13.30;92.50
26954;DHT22;14508;50.924;11.600;2023-05-17T09:22:56;13.30;92.60
26954;DHT22;14508;50.924;11.600;2023-05-17T09:25:24;13.30;91.70
26954;DHT22;14508;50.924;11.600;2023-05-17T09:27:52;13.30;89.00
26954;DHT22;14508;50.924;11.600;2023-05-17T09:30:26;13.40;86.30
26954;DHT22;14508;50.924;11.600;2023-05-17T09:32:57;13.40;84.70
26954;DHT22;14508;50.924;11.600;2023-05-17T09:35:28;13.50;83.70
26954;DHT22;14508;50.924;11.600;2023-05-17T09:38:06;13.60;80.70
26954;DHT22;14508;50.924;11.600;2023-05-17T09:40:37;13.80;78.50
26954;DHT22;14508;50.924;11.600;2023-05-17T09:43:06;14.00;70.40
26954;DHT22;14508;50.924;11.600;2023-05-17T09:45:35;14.10;70.50
26954;DHT22;14508;50.924;11.600;2023-05-17T09:48:12;14.30;69.90
26954;DHT22;14508;50.924;11.600;2023-05-17T09:50:44;14.50;68.60
26954;DHT22;14508;50.924;11.600;2023-05-17T09:53:25;14.60;66.30
26954;DHT22;14508;50.924;11.600;2023-05-17T09:55:54;14.70;64.00
26954;DHT22;14508;50.924;11.600;2023-05-17T09:58:23;14.80;62.00
26954;DHT22;14508;50.924;11.600;2023-05-17T10:00:52;14.90;59.80
26954;DHT22;14508;50.924;11.600;2023-05-17T10:03:22;15.10;60.10
26954;DHT22;14508;50.924;11.600;2023-05-17T10:05:51;15.20;57.80
26954;DHT22;14508;50.924;11.600;2023-05-17T10:08:21;15.10;58.50
26954;DHT22;14508;50.924;11.600;2023-05-17T10:10:52;15.10;58.10
26954;DHT22;14508;50.924;11.600;2023-05-17T10:13:24;15.30;58.70
26954;DHT22;14508;50.924;11.600;2023-05-17T10:15:53;15.30;59.00
26954;DHT22;14508;50.924;11.600;2023-05-17T10:18:23;15.40;59.30
26954;DHT22;14508;50.924;11.600;2023-05-17T10:20:51;15.50;59.60
26954;DHT22;14508;50.924;11.600;2023-05-17T10:23:20;15.50;59.40
26954;DHT22;14508;50.924;11.600;2023-05-17T10:25:49;15.50;59.80
26954;DHT22;14508;50.924;11.600;2023-05-17T10:28:18;15.60;59.90
26954;DHT22;14508;50.924;11.600;2023-05-17T10:30:46;15.60;60.40
26954;DHT22;14508;50.924;11.600;2023-05-17T10:33:16;15.90;61.10
26954;DHT22;14508;50.924;11.600;2023-05-17T10:35:48;16.10;59.10
26954;DHT22;14508;50.924;11.600;2023-05-17T10:38:17;16.10;56.40
26954;DHT22;14508;50.924;11.600;2023-05-17T10:40:52;16.10;56.90
26954;DHT22;14508;50.924;11.600;2023-05-17T10:43:20;16.10;56.70
26954;DHT22;14508;50.924;11.600;2023-05-17T10:45:49;16.20;56.10
26954;DHT22;14508;50.924;11.600;2023-05-17T10:48:17;16.30;53.90
26954;DHT22;14508;50.924;11.600;2023-05-17T10:50:48;16.30;54.00
26954;DHT22;14508;50.924;11.600;2023-05-17T10:53:27;16.30;54.30
26954;DHT22;14508;50.924;11.600;2023-05-17T10:55:55;16.40;53.30
26954;DHT22;14508;50.924;11.600;2023-05-17T10:58:25;16.40;52.80
26954;DHT22;14508;50.924;11.600;2023-05-17T11:00:55;16.60;52.40
26954;DHT22;14508;50.924;11.600;2023-05-17T11:03:26;16.70;51.10
26954;DHT22;14508;50.924;11.600;2023-05-17T11:06:14;16.70;50.80
26954;DHT22;14508;50.924;11.600;2023-05-17T11:09:07;16.70;50.30
26954;DHT22;14508;50.924;11.600;2023-05-17T11:12:02;16.40;49.70
26954;DHT22;14508;50.924;11.600;2023-05-17T11:14:42;16.40;49.70
26954;DHT22;14508;50.924;11.600;2023-05-17T11:17:14;16.30;50.10
26954;DHT22;14508;50.924;11.600;2023-05-17T11:20:00;16.20;50.10
26954;DHT22;14508;50.924;11.600;2023-05-17T11:22:36;16.00;50.60
26954;DHT22;14508;50.924;11.600;2023-05-17T11:25:06;15.80;51.10
26954;DHT22;14508;50.924;11.600;2023-05-17T11:27:36;15.70;51.70
26954;DHT22;14508;50.924;11.600;2023-05-17T11:30:14;15.40;52.00
26954;DHT22;14508;50.924;11.600;2023-05-17T11:32:46;15.40;52.40
26954;DHT22;14508;50.924;11.600;2023-05-17T11:35:16;15.50;52.80
26954;DHT22;14508;50.924;11.600;2023-05-17T11:37:45;15.60;52.10
26954;DHT22;14508;50.924;11.600;2023-05-17T11:40:23;15.70;52.00
26954;DHT22;14508;50.924;11.600;2023-05-17T11:43:10;15.80;51.00
26954;DHT22;14508;50.924;11.600;2023-05-17T11:45:44;16.00;50.80
26954;DHT22;14508;50.924;11.600;2023-05-17T11:48:12;16.10;50.70
26954;DHT22;14508;50.924;11.600;2023-05-17T11:50:42;16.20;50.40
26954;DHT22;14508;50.924;11.600;2023-05-17T11:53:12;16.50;50.50
26954;DHT22;14508;50.924;11.600;2023-05-17T11:55:43;16.80;50.00
26954;DHT22;14508;50.924;11.600;2023-05-17T11:58:14;16.90;49.80
26954;DHT22;14508;50.924;11.600;2023-05-17T12:00:43;16.90;48.80
26954;DHT22;14508;50.924;11.600;2023-05-17T12:03:18;16.80;48.70
26954;DHT22;14508;50.924;11.600;2023-05-17T12:05:48;16.60;48.20
26954;DHT22;14508;50.924;11.600;2023-05-17T12:08:18;16.40;48.30
26954;DHT22;14508;50.924;11.600;2023-05-17T12:10:50;16.20;49.20
26954;DHT22;14508;50.924;11.600;2023-05-17T12:13:18;16.30;48.90
26954;DHT22;14508;50.924;11.600;2023-05-17T12:15:50;16.40;47.20
26954;DHT22;14508;50.924;11.600;2023-05-17T12:18:19;16.60;45.90
26954;DHT22;14508;50.924;11.600;2023-05-17T12:20:54;16.60;45.40
26954;DHT22;14508;50.924;11.600;2023-05-17T12:23:27;16.70;45.60
26954;DHT22;14508;50.924;11.600;2023-05-17T12:26:07;16.80;45.60
26954;DHT22;14508;50.924;11.600;2023-05-17T12:28:36;17.00;45.60
26954;DHT22;14508;50.924;11.600;2023-05-17T12:31:06;17.00;45.30
26954;DHT22;14508;50.924;11.600;2023-05-17T12:33:38;16.60;45.40
26954;DHT22;14508;50.924;11.600;2023-05-17T12:36:08;16.40;45.90
26954;DHT22;14508;50.924;11.600;2023-05-17T12:38:39;16.40;46.80
26954;DHT22;14508;50.924;11.600;2023-05-17T12:41:08;16.30;46.60
26954;DHT22;14508;50.924;11.600;2023-05-17T12:43:38;16.40;46.70
26954;DHT22;14508;50.924;11.600;2023-05-17T12:46:07;16.60;46.20
26954;DHT22;14508;50.924;11.600;2023-05-17T12:48:38;16.40;46.10
26954;DHT22;14508;50.924;11.600;2023-05-17T12:51:08;16.40;47.00
26954;DHT22;14508;50.924;11.600;2023-05-17T12:53:40;16.50;46.60
26954;DHT22;14508;50.924;11.600;2023-05-17T12:56:14;16.60;45.10
26954;DHT22;14508;50.924;11.600;2023-05-17T12:58:43;16.60;45.50
26954;DHT22;14508;50.924;11.600;2023-05-17T13:01:11;16.70;46.60
26954;DHT22;14508;50.924;11.600;2023-05-17T13:03:40;17.00;46.60
26954;DHT22;14508;50.924;11.600;2023-05-17T13:06:08;17.30;46.30
26954;DHT22;14508;50.924;11.600;2023-05-17T13:08:36;17.60;45.80
26954;DHT22;14508;50.924;11.600;2023-05-17T13:11:07;18.00;45.40
26954;DHT22;14508;50.924;11.600;2023-05-17T13:13:36;18.20;44.60
26954;DHT22;14508;50.924;11.600;2023-05-17T13:16:04;18.30;43.80
26954;DHT22;14508;50.924;11.600;2023-05-17T13:18:49;18.20;43.00
26954;DHT22;14508;50.924;11.600;2023-05-17T13:21:18;17.90;43.80
26954;DHT22;14508;50.924;11.600;2023-05-17T13:23:47;17.80;44.90
26954;DHT22;14508;50.924;11.600;2023-05-17T13:26:17;17.60;45.00
26954;DHT22;14508;50.924;11.600;2023-05-17T13:28:45;17.50;45.10
26954;DHT22;14508;50.924;11.600;2023-05-17T13:31:13;17.40;45.70
26954;DHT22;14508;50.924;11.600;2023-05-17T13:33:41;17.40;45.30
26954;DHT22;14508;50.924;11.600;2023-05-17T13:36:11;17.30;44.60
26954;DHT22;14508;50.924;11.600;2023-05-17T13:38:38;17.30;44.80
26954;DHT22;14508;50.924;11.600;2023-05-17T13:41:07;17.20;44.30
26954;DHT22;14508;50.924;11.600;2023-05-17T13:43:36;17.30;44.70
26954;DHT22;14508;50.924;11.600;2023-05-17T13:46:04;17.50;44.10
26954;DHT22;14508;50.924;11.600;2023-05-17T13:48:32;17.60;44.50
26954;DHT22;14508;50.924;11.600;2023-05-17T13:51:00;17.70;44.50
26954;DHT22;14508;50.924;11.600;2023-05-17T13:53:28;17.60;44.20
26954;DHT22;14508;50.924;11.600;2023-05-17T13:55:56;17.50;45.00
26954;DHT22;14508;50.924;11.600;2023-05-17T13:58:24;17.40;44.40
26954;DHT22;14508;50.924;11.600;2023-05-17T14:00:53;17.20;45.00
26954;DHT22;14508;50.924;11.600;2023-05-17T14:03:22;17.00;45.10
26954;DHT22;14508;50.924;11.600;2023-05-17T14:05:49;16.90;45.40
26954;DHT22;14508;50.924;11.600;2023-05-17T14:08:19;16.90;45.90
26954;DHT22;14508;50.924;11.600;2023-05-17T14:10:47;17.10;45.40
26954;DHT22;14508;50.924;11.600;2023-05-17T14:13:15;17.40;44.90
26954;DHT22;14508;50.924;11.600;2023-05-17T14:15:43;17.10;44.00
26954;DHT22;14508;50.924;11.600;2023-05-17T14:18:12;16.90;44.60
26954;DHT22;14508;50.924;11.600;2023-05-17T14:20:40;16.80;45.10
26954;DHT22;14508;50.924;11.600;2023-05-17T14:23:08;16.70;45.60
26954;DHT22;14508;50.924;11.600;2023-05-17T14:25:36;16.70;46.20
26954;DHT22;14508;50.924;11.600;2023-05-17T14:28:04;16.90;45.70
26954;DHT22;14508;50.924;11.600;2023-05-17T14:30:32;17.10;45.00
26954;DHT22;14508;50.924;11.600;2023-05-17T14:33:00;17.20;44.90
26954;DHT22;14508;50.924;11.600;2023-05-17T14:35:29;17.30;44.50
26954;DHT22;14508;50.924;11.600;2023-05-17T14:37:57;17.40;44.30
26954;DHT22;14508;50.924;11.600;2023-05-17T14:40:25;17.50;43.80
26954;DHT22;14508;50.924;11.600;2023-05-17T14:42:54;17.70;43.70
26954;DHT22;14508;50.924;11.600;2023-05-17T14:45:22;17.60;43.60
26954;DHT22;14508;50.924;11.600;2023-05-17T14:47:50;17.60;43.50
26954;DHT22;14508;50.924;11.600;2023-05-17T14:50:18;17.40;43.40
26954;DHT22;14508;50.924;11.600;2023-05-17T14:52:48;17.30;43.60
26954;DHT22;14508;50.924;11.600;2023-05-17T14:55:16;17.20;43.80
26954;DHT22;14508;50.924;11.600;2023-05-17T14:57:44;17.20;44.00
26954;DHT22;14508;50.924;11.600;2023-05-17T15:00:13;17.40;43.90
26954;DHT22;14508;50.924;11.600;2023-05-17T15:02:41;17.50;43.80
26954;DHT22;14508;50.924;11.600;2023-05-17T15:05:09;17.50;43.30
26954;DHT22;14508;50.924;11.600;2023-05-17T15:07:38;17.50;42.80
26954;DHT22;14508;50.924;11.600;2023-05-17T15:10:08;17.50;42.70
26954;DHT22;14508;50.924;11.600;2023-05-17T15:12:38;17.70;42.90
26954;DHT22;14508;50.924;11.600;2023-05-17T15:15:07;17.70;42.60
26954;DHT22;14508;50.924;11.600;2023-05-17T15:17:35;17.70;43.10
26954;DHT22;14508;50.924;11.600;2023-05-17T15:20:04;17.80;43.20
26954;DHT22;14508;50.924;11.600;2023-05-17T15:22:33;17.90;42.70
26954;DHT22;14508;50.924;11.600;2023-05-17T15:25:01;18.10;42.70
26954;DHT22;14508;50.924;11.600;2023-05-17T15:27:30;18.00;42.20
26954;DHT22;14508;50.924;11.600;2023-05-17T15:29:58;18.00;41.80
26954;DHT22;14508;50.924;11.600;2023-05-17T15:32:26;18.20;41.80
26954;DHT22;14508;50.924;11.600;2023-05-17T15:34:54;18.40;41.60
26954;DHT22;14508;50.924;11.600;2023-05-17T15:37:22;18.70;41.10